Galilee, Rhode Island
Current Conditions -  °F | °C
As of 12:53 PM on Sunday 21 Dec 2014 (Local Time) from KUUU Reporting Station
Overcast Overcast  
Wind Chill: 28°   Ceiling: 500
Heat Index: 36°   Visibility: 9mi
Dew Point: 34°   Wind: 10mph
Humidity: 93%   Direction: 10°N
Pressure: 30.25"   Gusts: NA
Location:  41.4075°N, 71.4775°W
Report Text: KUUU 211753Z AUTO 01009KT 9SM OVC005 02/01 A3025 RMK AO2 UPE00RAB03E11 SLP243 P0000 60001 T00220011 10028 20017 56015
Loading
Personal Weather Stations






























Interactive Weather Map New forecast layout! Learn more

10-Day Weather Forecast

Advertisements
Track Severe Weather on mobile